sensor_id;sensor_type;location;lat;lon;timestamp;pressure;altitude;pressure_sealevel;temperature;humidity
74794;BME280;63320;50.768;6.724;2023-04-15T00:01:46;99346.47;;;8.44;56.96
74794;BME280;63320;50.768;6.724;2023-04-15T00:04:11;99342.31;;;8.22;56.21
74794;BME280;63320;50.768;6.724;2023-04-15T00:06:37;99346.44;;;7.41;57.79
74794;BME280;63320;50.768;6.724;2023-04-15T00:09:02;99335.19;;;7.58;59.06
74794;BME280;63320;50.768;6.724;2023-04-15T00:11:29;99340.84;;;7.84;58.25
74794;BME280;63320;50.768;6.724;2023-04-15T00:13:54;99337.25;;;7.15;58.96
74794;BME280;63320;50.768;6.724;2023-04-15T00:16:19;99337.31;;;7.85;59.29
74794;BME280;63320;50.768;6.724;2023-04-15T00:18:45;99332.22;;;7.47;57.18
74794;BME280;63320;50.768;6.724;2023-04-15T00:21:10;99336.59;;;7.46;58.13
74794;BME280;63320;50.768;6.724;2023-04-15T00:23:35;99336.28;;;7.18;58.22
74794;BME280;63320;50.768;6.724;2023-04-15T00:26:01;99325.75;;;7.37;59.15
74794;BME280;63320;50.768;6.724;2023-04-15T00:28:28;99337.00;;;7.03;59.44
74794;BME280;63320;50.768;6.724;2023-04-15T00:30:53;99331.19;;;7.15;58.93
74794;BME280;63320;50.768;6.724;2023-04-15T00:33:18;99330.31;;;7.33;58.72
74794;BME280;63320;50.768;6.724;2023-04-15T00:35:44;99327.34;;;7.22;58.45
74794;BME280;63320;50.768;6.724;2023-04-15T00:38:09;99315.84;;;7.43;58.88
74794;BME280;63320;50.768;6.724;2023-04-15T00:40:35;99320.91;;;7.46;57.96
74794;BME280;63320;50.768;6.724;2023-04-15T00:43:01;99320.03;;;7.11;58.68
74794;BME280;63320;50.768;6.724;2023-04-15T00:45:27;99316.75;;;7.25;58.88
74794;BME280;63320;50.768;6.724;2023-04-15T00:47:53;99321.84;;;7.28;59.58
74794;BME280;63320;50.768;6.724;2023-04-15T00:50:18;99323.13;;;7.19;61.26
74794;BME280;63320;50.768;6.724;2023-04-15T00:52:44;99320.00;;;7.65;59.80
74794;BME280;63320;50.768;6.724;2023-04-15T00:55:09;99330.59;;;7.96;58.42
74794;BME280;63320;50.768;6.724;2023-04-15T00:57:35;99322.81;;;7.95;59.86
74794;BME280;63320;50.768;6.724;2023-04-15T01:00:00;99329.59;;;7.99;58.33
74794;BME280;63320;50.768;6.724;2023-04-15T01:02:27;99341.28;;;8.09;58.67
74794;BME280;63320;50.768;6.724;2023-04-15T01:04:52;99335.81;;;7.96;60.00
74794;BME280;63320;50.768;6.724;2023-04-15T01:07:18;99342.09;;;7.59;59.77
74794;BME280;63320;50.768;6.724;2023-04-15T01:09:43;99348.75;;;6.56;63.45
74794;BME280;63320;50.768;6.724;2023-04-15T01:12:11;99357.63;;;7.09;61.91
74794;BME280;63320;50.768;6.724;2023-04-15T01:14:37;99360.16;;;7.10;62.64
74794;BME280;63320;50.768;6.724;2023-04-15T01:17:02;99348.31;;;7.03;62.92
74794;BME280;63320;50.768;6.724;2023-04-15T01:19:29;99342.84;;;7.08;63.23
74794;BME280;63320;50.768;6.724;2023-04-15T01:21:55;99348.88;;;6.91;62.97
74794;BME280;63320;50.768;6.724;2023-04-15T01:24:21;99344.91;;;7.01;63.27
74794;BME280;63320;50.768;6.724;2023-04-15T01:26:49;99335.25;;;7.03;63.46
74794;BME280;63320;50.768;6.724;2023-04-15T01:29:14;99331.41;;;6.55;63.16
74794;BME280;63320;50.768;6.724;2023-04-15T01:31:40;99335.59;;;6.95;63.97
74794;BME280;63320;50.768;6.724;2023-04-15T01:34:05;99337.97;;;7.19;61.89
74794;BME280;63320;50.768;6.724;2023-04-15T01:36:30;99336.03;;;7.22;62.49
74794;BME280;63320;50.768;6.724;2023-04-15T01:38:56;99327.84;;;7.30;60.12
74794;BME280;63320;50.768;6.724;2023-04-15T01:41:24;99330.22;;;7.52;60.64
74794;BME280;63320;50.768;6.724;2023-04-15T01:43:51;99330.41;;;7.49;62.69
74794;BME280;63320;50.768;6.724;2023-04-15T01:46:16;99324.09;;;7.53;60.38
74794;BME280;63320;50.768;6.724;2023-04-15T01:48:42;99326.38;;;7.42;61.19
74794;BME280;63320;50.768;6.724;2023-04-15T01:51:07;99326.84;;;7.50;61.03
74794;BME280;63320;50.768;6.724;2023-04-15T01:53:33;99322.16;;;7.57;59.36
74794;BME280;63320;50.768;6.724;2023-04-15T01:55:58;99325.06;;;7.68;60.23
74794;BME280;63320;50.768;6.724;2023-04-15T01:58:23;99325.38;;;7.44;60.16
74794;BME280;63320;50.768;6.724;2023-04-15T02:00:50;99323.78;;;7.59;59.43
74794;BME280;63320;50.768;6.724;2023-04-15T02:03:15;99319.75;;;7.52;60.51
74794;BME280;63320;50.768;6.724;2023-04-15T02:05:41;99324.38;;;7.47;60.30
74794;BME280;63320;50.768;6.724;2023-04-15T02:08:06;99330.94;;;7.56;59.71
74794;BME280;63320;50.768;6.724;2023-04-15T02:10:31;99333.81;;;7.32;60.43
74794;BME280;63320;50.768;6.724;2023-04-15T02:12:57;99333.84;;;7.67;59.67
74794;BME280;63320;50.768;6.724;2023-04-15T02:15:22;99326.78;;;7.69;59.41
74794;BME280;63320;50.768;6.724;2023-04-15T02:17:49;99328.16;;;7.59;60.61
74794;BME280;63320;50.768;6.724;2023-04-15T02:20:14;99327.78;;;7.66;59.65
74794;BME280;63320;50.768;6.724;2023-04-15T02:22:39;99332.00;;;7.34;59.64
74794;BME280;63320;50.768;6.724;2023-04-15T02:25:06;99333.69;;;7.70;59.86
74794;BME280;63320;50.768;6.724;2023-04-15T02:27:31;99327.44;;;7.72;59.27
74794;BME280;63320;50.768;6.724;2023-04-15T02:29:57;99335.75;;;7.29;59.45
74794;BME280;63320;50.768;6.724;2023-04-15T02:32:22;99330.19;;;7.17;61.36
74794;BME280;63320;50.768;6.724;2023-04-15T02:34:49;99336.16;;;7.02;61.39
74794;BME280;63320;50.768;6.724;2023-04-15T02:37:14;99341.34;;;7.21;60.77
74794;BME280;63320;50.768;6.724;2023-04-15T02:39:39;99348.53;;;7.35;60.32
74794;BME280;63320;50.768;6.724;2023-04-15T02:42:05;99348.75;;;6.94;59.41
74794;BME280;63320;50.768;6.724;2023-04-15T02:44:30;99349.84;;;7.07;59.76
74794;BME280;63320;50.768;6.724;2023-04-15T02:46:55;99348.03;;;7.26;60.42
74794;BME280;63320;50.768;6.724;2023-04-15T02:49:21;99343.31;;;6.98;59.45
74794;BME280;63320;50.768;6.724;2023-04-15T02:51:47;99356.63;;;7.11;61.00
74794;BME280;63320;50.768;6.724;2023-04-15T02:54:13;99352.59;;;7.40;59.84
74794;BME280;63320;50.768;6.724;2023-04-15T02:56:38;99351.47;;;7.46;60.21
74794;BME280;63320;50.768;6.724;2023-04-15T02:59:03;99356.47;;;7.33;59.78
74794;BME280;63320;50.768;6.724;2023-04-15T03:01:29;99355.44;;;7.36;58.61
74794;BME280;63320;50.768;6.724;2023-04-15T03:03:54;99348.56;;;7.16;61.70
74794;BME280;63320;50.768;6.724;2023-04-15T03:06:19;99353.84;;;6.59;60.94
74794;BME280;63320;50.768;6.724;2023-04-15T03:08:46;99362.16;;;7.05;61.71
74794;BME280;63320;50.768;6.724;2023-04-15T03:11:12;99368.31;;;7.04;61.68
74794;BME280;63320;50.768;6.724;2023-04-15T03:13:37;99362.50;;;6.97;60.55
74794;BME280;63320;50.768;6.724;2023-04-15T03:16:03;99364.22;;;6.80;61.48
74794;BME280;63320;50.768;6.724;2023-04-15T03:18:28;99352.50;;;6.69;59.85
74794;BME280;63320;50.768;6.724;2023-04-15T03:20:53;99360.50;;;7.03;61.03
74794;BME280;63320;50.768;6.724;2023-04-15T03:23:19;99356.09;;;6.86;60.71
74794;BME280;63320;50.768;6.724;2023-04-15T03:25:45;99361.50;;;7.19;61.06
74794;BME280;63320;50.768;6.724;2023-04-15T03:28:11;99353.69;;;7.00;61.05
74794;BME280;63320;50.768;6.724;2023-04-15T03:30:36;99361.69;;;7.33;59.90
74794;BME280;63320;50.768;6.724;2023-04-15T03:33:01;99353.44;;;7.41;60.15
74794;BME280;63320;50.768;6.724;2023-04-15T03:35:27;99355.75;;;7.47;59.49
74794;BME280;63320;50.768;6.724;2023-04-15T03:37:52;99354.09;;;7.10;59.02
74794;BME280;63320;50.768;6.724;2023-04-15T03:40:18;99346.91;;;7.32;60.60
74794;BME280;63320;50.768;6.724;2023-04-15T03:42:44;99349.38;;;7.35;59.62
74794;BME280;63320;50.768;6.724;2023-04-15T03:45:10;99352.25;;;7.12;60.16
74794;BME280;63320;50.768;6.724;2023-04-15T03:47:35;99358.06;;;6.99;59.48
74794;BME280;63320;50.768;6.724;2023-04-15T03:50:01;99359.88;;;6.97;61.37
74794;BME280;63320;50.768;6.724;2023-04-15T03:52:26;99362.28;;;7.02;60.84
74794;BME280;63320;50.768;6.724;2023-04-15T03:54:51;99357.53;;;6.74;60.62
74794;BME280;63320;50.768;6.724;2023-04-15T03:57:17;99359.00;;;6.03;60.96
74794;BME280;63320;50.768;6.724;2023-04-15T03:59:43;99363.88;;;6.49;60.79
74794;BME280;63320;50.768;6.724;2023-04-15T04:02:09;99362.44;;;5.61;62.54
74794;BME280;63320;50.768;6.724;2023-04-15T04:04:34;99364.50;;;6.15;62.51
74794;BME280;63320;50.768;6.724;2023-04-15T04:06:59;99368.59;;;6.21;62.94
74794;BME280;63320;50.768;6.724;2023-04-15T04:09:25;99375.88;;;6.54;62.03
74794;BME280;63320;50.768;6.724;2023-04-15T04:11:50;99380.94;;;6.17;62.15
74794;BME280;63320;50.768;6.724;2023-04-15T04:14:15;99378.19;;;6.20;63.06
74794;BME280;63320;50.768;6.724;2023-04-15T04:16:42;99379.00;;;6.41;62.30
74794;BME280;63320;50.768;6.724;2023-04-15T04:19:07;99380.78;;;6.41;62.20
74794;BME280;63320;50.768;6.724;2023-04-15T04:21:32;99390.69;;;5.93;65.02
74794;BME280;63320;50.768;6.724;2023-04-15T04:23:58;99388.06;;;6.14;64.33
74794;BME280;63320;50.768;6.724;2023-04-15T04:26:23;99391.38;;;5.97;64.63
74794;BME280;63320;50.768;6.724;2023-04-15T04:28:49;99397.38;;;5.79;65.27
74794;BME280;63320;50.768;6.724;2023-04-15T04:31:14;99406.16;;;5.76;64.58
74794;BME280;63320;50.768;6.724;2023-04-15T04:33:41;99402.03;;;5.70;64.46
74794;BME280;63320;50.768;6.724;2023-04-15T04:36:06;99402.97;;;5.69;64.62
74794;BME280;63320;50.768;6.724;2023-04-15T04:38:31;99404.59;;;5.94;63.58
74794;BME280;63320;50.768;6.724;2023-04-15T04:40:57;99408.66;;;5.79;64.51
74794;BME280;63320;50.768;6.724;2023-04-15T04:43:22;99407.63;;;5.83;64.82
74794;BME280;63320;50.768;6.724;2023-04-15T04:45:48;99407.34;;;5.03;65.08
74794;BME280;63320;50.768;6.724;2023-04-15T04:48:13;99410.53;;;4.64;66.42
74794;BME280;63320;50.768;6.724;2023-04-15T04:50:40;99402.13;;;5.47;65.42
74794;BME280;63320;50.768;6.724;2023-04-15T04:53:05;99416.06;;;5.46;65.24
74794;BME280;63320;50.768;6.724;2023-04-15T04:55:30;99413.03;;;5.79;65.02
74794;BME280;63320;50.768;6.724;2023-04-15T04:57:56;99405.69;;;5.66;64.16
74794;BME280;63320;50.768;6.724;2023-04-15T05:00:21;99411.34;;;5.56;64.45
74794;BME280;63320;50.768;6.724;2023-04-15T05:02:46;99415.53;;;5.16;66.55
74794;BME280;63320;50.768;6.724;2023-04-15T05:05:12;99409.38;;;5.18;65.38
74794;BME280;63320;50.768;6.724;2023-04-15T05:07:39;99412.88;;;5.82;66.36
74794;BME280;63320;50.768;6.724;2023-04-15T05:10:07;99410.66;;;5.94;64.58
74794;BME280;63320;50.768;6.724;2023-04-15T05:12:32;99414.69;;;6.61;62.86
74794;BME280;63320;50.768;6.724;2023-04-15T05:14:57;99416.03;;;6.31;64.55
74794;BME280;63320;50.768;6.724;2023-04-15T05:17:23;99421.41;;;6.07;64.71
74794;BME280;63320;50.768;6.724;2023-04-15T05:19:48;99416.19;;;6.28;64.77
74794;BME280;63320;50.768;6.724;2023-04-15T05:22:13;99418.94;;;6.64;63.58
74794;BME280;63320;50.768;6.724;2023-04-15T05:24:40;99424.59;;;6.34;62.96
74794;BME280;63320;50.768;6.724;2023-04-15T05:27:05;99431.69;;;6.51;64.43
74794;BME280;63320;50.768;6.724;2023-04-15T05:29:31;99439.22;;;6.38;63.88
74794;BME280;63320;50.768;6.724;2023-04-15T05:31:56;99447.00;;;6.79;64.78
74794;BME280;63320;50.768;6.724;2023-04-15T05:34:21;99439.34;;;6.35;64.44
74794;BME280;63320;50.768;6.724;2023-04-15T05:36:47;99444.22;;;5.38;64.68
74794;BME280;63320;50.768;6.724;2023-04-15T05:39:12;99447.94;;;6.37;64.96
74794;BME280;63320;50.768;6.724;2023-04-15T05:41:39;99457.66;;;6.74;63.77
74794;BME280;63320;50.768;6.724;2023-04-15T05:44:04;99462.06;;;6.93;63.29
74794;BME280;63320;50.768;6.724;2023-04-15T05:46:29;99464.69;;;6.72;62.41
74794;BME280;63320;50.768;6.724;2023-04-15T05:48:55;99460.69;;;6.04;64.98
74794;BME280;63320;50.768;6.724;2023-04-15T05:51:20;99461.72;;;6.61;63.87
74794;BME280;63320;50.768;6.724;2023-04-15T05:53:45;99460.13;;;6.57;62.29
74794;BME280;63320;50.768;6.724;2023-04-15T05:56:11;99474.56;;;6.66;63.21
74794;BME280;63320;50.768;6.724;2023-04-15T05:58:37;99475.66;;;6.81;63.53
74794;BME280;63320;50.768;6.724;2023-04-15T06:01:03;99482.69;;;7.18;61.90
74794;BME280;63320;50.768;6.724;2023-04-15T06:03:28;99477.34;;;6.82;61.83
74794;BME280;63320;50.768;6.724;2023-04-15T06:05:54;99484.81;;;6.70;62.19
74794;BME280;63320;50.768;6.724;2023-04-15T06:08:19;99489.94;;;7.11;63.21
74794;BME280;63320;50.768;6.724;2023-04-15T06:10:44;99488.72;;;6.81;62.48
74794;BME280;63320;50.768;6.724;2023-04-15T06:13:10;99486.09;;;6.81;64.00
74794;BME280;63320;50.768;6.724;2023-04-15T06:15:36;99492.38;;;6.77;63.53
74794;BME280;63320;50.768;6.724;2023-04-15T06:18:02;99488.63;;;6.82;64.79
74794;BME280;63320;50.768;6.724;2023-04-15T06:20:27;99489.47;;;7.03;63.77
74794;BME280;63320;50.768;6.724;2023-04-15T06:22:52;99495.06;;;7.14;64.10
74794;BME280;63320;50.768;6.724;2023-04-15T06:25:18;99502.19;;;7.30;62.69
74794;BME280;63320;50.768;6.724;2023-04-15T06:27:43;99500.00;;;6.81;63.56
74794;BME280;63320;50.768;6.724;2023-04-15T06:30:09;99506.13;;;6.41;65.33
74794;BME280;63320;50.768;6.724;2023-04-15T06:32:36;99499.84;;;6.65;65.60
74794;BME280;63320;50.768;6.724;2023-04-15T06:35:01;99503.22;;;6.67;65.14
74794;BME280;63320;50.768;6.724;2023-04-15T06:37:26;99513.75;;;7.43;66.09
74794;BME280;63320;50.768;6.724;2023-04-15T06:39:52;99508.66;;;6.83;64.68
74794;BME280;63320;50.768;6.724;2023-04-15T06:42:17;99518.91;;;6.47;66.36
74794;BME280;63320;50.768;6.724;2023-04-15T06:44:43;99503.13;;;6.30;66.98
74794;BME280;63320;50.768;6.724;2023-04-15T06:47:08;99512.97;;;6.23;66.90
74794;BME280;63320;50.768;6.724;2023-04-15T06:49:34;99516.00;;;6.55;65.99
74794;BME280;63320;50.768;6.724;2023-04-15T06:52:00;99521.94;;;6.97;64.66
74794;BME280;63320;50.768;6.724;2023-04-15T06:54:26;99535.88;;;6.98;65.56
74794;BME280;63320;50.768;6.724;2023-04-15T06:56:51;99542.53;;;6.85;66.60
74794;BME280;63320;50.768;6.724;2023-04-15T06:59:17;99548.50;;;6.68;68.92
74794;BME280;63320;50.768;6.724;2023-04-15T07:01:42;99553.19;;;6.80;68.23
74794;BME280;63320;50.768;6.724;2023-04-15T07:04:07;99560.13;;;6.40;70.52
74794;BME280;63320;50.768;6.724;2023-04-15T07:06:34;99552.28;;;6.61;70.40
74794;BME280;63320;50.768;6.724;2023-04-15T07:08:59;99554.38;;;6.53;69.44
74794;BME280;63320;50.768;6.724;2023-04-15T07:11:25;99563.63;;;6.39;70.78
74794;BME280;63320;50.768;6.724;2023-04-15T07:13:50;99565.66;;;6.11;70.80
74794;BME280;63320;50.768;6.724;2023-04-15T07:16:16;99563.84;;;6.55;70.11
74794;BME280;63320;50.768;6.724;2023-04-15T07:18:41;99565.69;;;6.53;69.70
74794;BME280;63320;50.768;6.724;2023-04-15T07:21:06;99557.78;;;6.75;68.95
74794;BME280;63320;50.768;6.724;2023-04-15T07:23:33;99563.63;;;6.39;68.89
74794;BME280;63320;50.768;6.724;2023-04-15T07:25:58;99570.31;;;6.67;69.09
74794;BME280;63320;50.768;6.724;2023-04-15T07:28:24;99573.63;;;6.70;69.40
74794;BME280;63320;50.768;6.724;2023-04-15T07:30:49;99578.09;;;6.89;69.03
74794;BME280;63320;50.768;6.724;2023-04-15T07:33:14;99585.94;;;6.68;69.96
74794;BME280;63320;50.768;6.724;2023-04-15T07:35:40;99589.91;;;6.77;70.85
74794;BME280;63320;50.768;6.724;2023-04-15T07:38:05;99598.47;;;6.81;71.11
74794;BME280;63320;50.768;6.724;2023-04-15T07:40:32;99597.22;;;7.10;70.66
74794;BME280;63320;50.768;6.724;2023-04-15T07:42:57;99597.56;;;7.21;69.70
74794;BME280;63320;50.768;6.724;2023-04-15T07:45:22;99617.91;;;7.35;69.79
74794;BME280;63320;50.768;6.724;2023-04-15T07:47:48;99613.38;;;7.38;70.23
74794;BME280;63320;50.768;6.724;2023-04-15T07:50:13;99608.19;;;7.37;70.96
74794;BME280;63320;50.768;6.724;2023-04-15T07:52:38;99609.25;;;7.33;70.95
74794;BME280;63320;50.768;6.724;2023-04-15T07:55:04;99615.72;;;7.44;71.76
74794;BME280;63320;50.768;6.724;2023-04-15T07:57:31;99613.66;;;7.51;70.60
74794;BME280;63320;50.768;6.724;2023-04-15T07:59:56;99621.34;;;7.35;71.93
74794;BME280;63320;50.768;6.724;2023-04-15T08:02:22;99622.06;;;7.58;70.74
74794;BME280;63320;50.768;6.724;2023-04-15T08:04:47;99627.75;;;7.67;71.00
74794;BME280;63320;50.768;6.724;2023-04-15T08:07:12;99628.16;;;7.77;70.58
74794;BME280;63320;50.768;6.724;2023-04-15T08:09:38;99632.53;;;7.58;71.22
74794;BME280;63320;50.768;6.724;2023-04-15T08:12:04;99636.94;;;7.95;70.47
74794;BME280;63320;50.768;6.724;2023-04-15T08:14:30;99639.41;;;7.98;70.82
74794;BME280;63320;50.768;6.724;2023-04-15T08:16:56;99638.69;;;8.13;70.35
74794;BME280;63320;50.768;6.724;2023-04-15T08:19:21;99646.41;;;8.16;70.47
74794;BME280;63320;50.768;6.724;2023-04-15T08:21:46;99651.22;;;8.44;69.94
74794;BME280;63320;50.768;6.724;2023-04-15T08:24:12;99652.19;;;8.42;69.73
74794;BME280;63320;50.768;6.724;2023-04-15T08:26:37;99653.63;;;8.30;69.49
74794;BME280;63320;50.768;6.724;2023-04-15T08:29:02;99649.66;;;8.40;69.72
74794;BME280;63320;50.768;6.724;2023-04-15T08:31:29;99653.44;;;8.52;69.62
74794;BME280;63320;50.768;6.724;2023-04-15T08:33:55;99658.50;;;8.74;69.14
74794;BME280;63320;50.768;6.724;2023-04-15T08:36:21;99657.03;;;8.86;69.23
74794;BME280;63320;50.768;6.724;2023-04-15T08:38:46;99664.34;;;8.96;68.47
74794;BME280;63320;50.768;6.724;2023-04-15T08:41:20;99661.41;;;9.02;68.70
74794;BME280;63320;50.768;6.724;2023-04-15T08:43:51;99665.34;;;9.11;68.14
74794;BME280;63320;50.768;6.724;2023-04-15T08:46:16;99668.44;;;9.19;67.83
74794;BME280;63320;50.768;6.724;2023-04-15T08:48:46;99665.19;;;9.31;67.24
74794;BME280;63320;50.768;6.724;2023-04-15T08:51:12;99666.81;;;9.34;67.53
74794;BME280;63320;50.768;6.724;2023-04-15T08:53:37;99660.16;;;9.44;67.47
74794;BME280;63320;50.768;6.724;2023-04-15T08:56:04;99655.44;;;9.51;66.81
74794;BME280;63320;50.768;6.724;2023-04-15T08:58:32;99665.22;;;9.47;66.01
74794;BME280;63320;50.768;6.724;2023-04-15T09:00:57;99659.63;;;9.71;66.70
74794;BME280;63320;50.768;6.724;2023-04-15T09:03:23;99666.75;;;9.84;65.60
74794;BME280;63320;50.768;6.724;2023-04-15T09:05:49;99666.75;;;9.84;64.92
74794;BME280;63320;50.768;6.724;2023-04-15T09:08:15;99664.88;;;9.86;65.32
74794;BME280;63320;50.768;6.724;2023-04-15T09:10:40;99664.75;;;10.05;65.78
74794;BME280;63320;50.768;6.724;2023-04-15T09:13:06;99674.66;;;10.16;64.57
74794;BME280;63320;50.768;6.724;2023-04-15T09:15:32;99664.75;;;10.37;63.00
74794;BME280;63320;50.768;6.724;2023-04-15T09:17:57;99673.06;;;10.45;61.19
74794;BME280;63320;50.768;6.724;2023-04-15T09:20:22;99673.06;;;10.45;60.74
74794;BME280;63320;50.768;6.724;2023-04-15T09:22:51;99691.22;;;10.50;60.94
74794;BME280;63320;50.768;6.724;2023-04-15T09:25:27;99679.91;;;10.48;60.85
74794;BME280;63320;50.768;6.724;2023-04-15T09:27:54;99690.75;;;10.57;60.58
74794;BME280;63320;50.768;6.724;2023-04-15T09:30:19;99695.66;;;10.63;59.23
74794;BME280;63320;50.768;6.724;2023-04-15T09:32:49;99699.06;;;10.66;57.95
74794;BME280;63320;50.768;6.724;2023-04-15T09:35:14;99704.34;;;10.66;55.98
74794;BME280;63320;50.768;6.724;2023-04-15T09:37:40;99699.66;;;10.71;55.31
74794;BME280;63320;50.768;6.724;2023-04-15T09:40:07;99703.97;;;10.72;55.76
74794;BME280;63320;50.768;6.724;2023-04-15T09:42:33;99712.03;;;10.84;56.99
74794;BME280;63320;50.768;6.724;2023-04-15T09:45:07;99712.63;;;10.89;56.43
74794;BME280;63320;50.768;6.724;2023-04-15T09:47:32;99718.84;;;11.03;56.42
74794;BME280;63320;50.768;6.724;2023-04-15T09:49:58;99717.78;;;11.21;55.45
74794;BME280;63320;50.768;6.724;2023-04-15T09:52:24;99731.72;;;11.37;54.83
74794;BME280;63320;50.768;6.724;2023-04-15T09:54:52;99737.09;;;11.36;52.13
74794;BME280;63320;50.768;6.724;2023-04-15T09:57:19;99731.41;;;11.28;50.50
74794;BME280;63320;50.768;6.724;2023-04-15T09:59:44;99728.41;;;11.34;51.18
74794;BME280;63320;50.768;6.724;2023-04-15T10:02:10;99730.19;;;11.33;50.93
74794;BME280;63320;50.768;6.724;2023-04-15T10:04:39;99732.28;;;11.43;52.85
74794;BME280;63320;50.768;6.724;2023-04-15T10:07:06;99726.94;;;11.44;52.35
74794;BME280;63320;50.768;6.724;2023-04-15T10:09:34;99729.69;;;11.57;53.73
74794;BME280;63320;50.768;6.724;2023-04-15T10:12:00;99730.56;;;11.72;51.91
74794;BME280;63320;50.768;6.724;2023-04-15T10:14:27;99735.81;;;11.72;51.13
74794;BME280;63320;50.768;6.724;2023-04-15T10:16:55;99735.06;;;11.70;51.72
74794;BME280;63320;50.768;6.724;2023-04-15T10:19:25;99741.25;;;11.68;52.03
74794;BME280;63320;50.768;6.724;2023-04-15T10:21:52;99743.56;;;11.75;52.33
74794;BME280;63320;50.768;6.724;2023-04-15T10:24:18;99733.31;;;12.13;55.77
74794;BME280;63320;50.768;6.724;2023-04-15T10:26:43;99738.00;;;12.22;51.49
74794;BME280;63320;50.768;6.724;2023-04-15T10:29:09;99741.22;;;12.13;52.16
74794;BME280;63320;50.768;6.724;2023-04-15T10:31:37;99741.59;;;11.92;52.39
74794;BME280;63320;50.768;6.724;2023-04-15T10:34:03;99744.00;;;11.81;52.81
74794;BME280;63320;50.768;6.724;2023-04-15T10:36:29;99746.19;;;11.89;53.12
74794;BME280;63320;50.768;6.724;2023-04-15T10:38:55;99746.09;;;11.76;50.19
74794;BME280;63320;50.768;6.724;2023-04-15T10:41:22;99751.91;;;11.67;51.37
74794;BME280;63320;50.768;6.724;2023-04-15T10:43:50;99752.94;;;11.79;52.36
74794;BME280;63320;50.768;6.724;2023-04-15T10:46:20;99752.03;;;11.80;52.68
74794;BME280;63320;50.768;6.724;2023-04-15T10:48:49;99761.94;;;11.90;53.48
74794;BME280;63320;50.768;6.724;2023-04-15T10:51:15;99755.50;;;11.95;53.96
74794;BME280;63320;50.768;6.724;2023-04-15T10:53:41;99769.06;;;11.88;52.68
74794;BME280;63320;50.768;6.724;2023-04-15T10:56:07;99764.25;;;11.81;55.26
74794;BME280;63320;50.768;6.724;2023-04-15T10:58:40;99765.41;;;12.05;53.31
74794;BME280;63320;50.768;6.724;2023-04-15T11:01:06;99769.34;;;11.98;53.60
74794;BME280;63320;50.768;6.724;2023-04-15T11:03:39;99765.03;;;11.83;54.80
74794;BME280;63320;50.768;6.724;2023-04-15T11:06:08;99773.78;;;11.98;55.67
74794;BME280;63320;50.768;6.724;2023-04-15T11:08:53;99769.06;;;12.03;54.84
74794;BME280;63320;50.768;6.724;2023-04-15T11:11:19;99775.47;;;11.99;54.84
74794;BME280;63320;50.768;6.724;2023-04-15T11:13:47;99780.16;;;11.93;53.51
74794;BME280;63320;50.768;6.724;2023-04-15T11:16:13;99769.81;;;12.33;52.46
74794;BME280;63320;50.768;6.724;2023-04-15T11:18:38;99775.47;;;12.41;52.41
74794;BME280;63320;50.768;6.724;2023-04-15T11:21:05;99778.84;;;12.43;50.45
74794;BME280;63320;50.768;6.724;2023-04-15T11:23:37;99773.44;;;12.59;52.37
74794;BME280;63320;50.768;6.724;2023-04-15T11:26:04;99775.34;;;12.43;52.21
74794;BME280;63320;50.768;6.724;2023-04-15T11:28:31;99783.38;;;12.27;53.28
74794;BME280;63320;50.768;6.724;2023-04-15T11:30:57;99783.25;;;12.43;53.59
74794;BME280;63320;50.768;6.724;2023-04-15T11:33:23;99801.34;;;12.35;53.52
74794;BME280;63320;50.768;6.724;2023-04-15T11:35:49;99800.88;;;12.28;53.92
74794;BME280;63320;50.768;6.724;2023-04-15T11:38:15;99802.41;;;12.18;54.70
74794;BME280;63320;50.768;6.724;2023-04-15T11:40:42;99806.44;;;12.24;55.64
74794;BME280;63320;50.768;6.724;2023-04-15T11:43:09;99805.22;;;12.29;55.85
74794;BME280;63320;50.768;6.724;2023-04-15T11:45:35;99809.91;;;12.24;55.21
74794;BME280;63320;50.768;6.724;2023-04-15T11:48:05;99804.38;;;12.43;53.21
74794;BME280;63320;50.768;6.724;2023-04-15T11:50:30;99815.97;;;12.40;52.80
74794;BME280;63320;50.768;6.724;2023-04-15T11:52:56;99818.94;;;12.34;53.95
74794;BME280;63320;50.768;6.724;2023-04-15T11:55:23;99826.22;;;12.31;55.44
74794;BME280;63320;50.768;6.724;2023-04-15T11:58:04;99823.38;;;11.91;54.88
74794;BME280;63320;50.768;6.724;2023-04-15T12:00:30;99816.63;;;12.01;55.42
74794;BME280;63320;50.768;6.724;2023-04-15T12:03:10;99822.63;;;12.17;56.26
74794;BME280;63320;50.768;6.724;2023-04-15T12:05:36;99837.78;;;12.28;54.14
74794;BME280;63320;50.768;6.724;2023-04-15T12:08:01;99825.47;;;12.29;54.80
74794;BME280;63320;50.768;6.724;2023-04-15T12:10:26;99830.66;;;12.16;56.23
74794;BME280;63320;50.768;6.724;2023-04-15T12:12:53;99833.28;;;12.16;56.83
74794;BME280;63320;50.768;6.724;2023-04-15T12:15:20;99845.78;;;12.12;56.56
74794;BME280;63320;50.768;6.724;2023-04-15T12:17:46;99837.03;;;12.12;56.70
74794;BME280;63320;50.768;6.724;2023-04-15T12:20:11;99853.31;;;12.18;57.10
74794;BME280;63320;50.768;6.724;2023-04-15T12:22:37;99850.94;;;12.00;57.75
74794;BME280;63320;50.768;6.724;2023-04-15T12:25:03;99858.00;;;11.85;57.91
74794;BME280;63320;50.768;6.724;2023-04-15T12:27:28;99864.13;;;12.00;58.41
74794;BME280;63320;50.768;6.724;2023-04-15T12:30:03;99870.47;;;11.81;57.78
74794;BME280;63320;50.768;6.724;2023-04-15T12:32:29;99864.84;;;11.87;57.36
74794;BME280;63320;50.768;6.724;2023-04-15T12:34:59;99879.91;;;12.00;57.67
74794;BME280;63320;50.768;6.724;2023-04-15T12:37:24;99882.84;;;11.79;57.03
74794;BME280;63320;50.768;6.724;2023-04-15T12:39:50;99884.91;;;11.90;57.47
74794;BME280;63320;50.768;6.724;2023-04-15T12:42:16;99884.81;;;11.91;58.30
74794;BME280;63320;50.768;6.724;2023-04-15T12:44:42;99892.75;;;11.76;59.22
74794;BME280;63320;50.768;6.724;2023-04-15T12:47:10;99893.25;;;11.82;58.56
74794;BME280;63320;50.768;6.724;2023-04-15T12:49:35;99898.28;;;11.71;58.85
74794;BME280;63320;50.768;6.724;2023-04-15T12:52:02;99898.31;;;12.01;59.17
74794;BME280;63320;50.768;6.724;2023-04-15T12:54:29;99907.91;;;12.02;58.37
74794;BME280;63320;50.768;6.724;2023-04-15T12:56:54;99914.19;;;12.00;57.36
74794;BME280;63320;50.768;6.724;2023-04-15T12:59:20;99918.03;;;11.94;58.13
74794;BME280;63320;50.768;6.724;2023-04-15T13:01:46;99925.03;;;11.95;58.29